sensor_id;sensor_type;location;lat;lon;timestamp;temperature;humidity
26182;DHT22;13927;51.534;11.866;2022-11-13T00:01:28;3.00;99.90
26182;DHT22;13927;51.534;11.866;2022-11-13T00:03:54;3.00;99.90
26182;DHT22;13927;51.534;11.866;2022-11-13T00:06:22;3.00;99.90
26182;DHT22;13927;51.534;11.866;2022-11-13T00:08:51;2.90;99.90
26182;DHT22;13927;51.534;11.866;2022-11-13T00:11:18;2.90;99.90
26182;DHT22;13927;51.534;11.866;2022-11-13T00:13:46;2.90;99.90
26182;DHT22;13927;51.534;11.866;2022-11-13T00:16:14;2.80;99.90
26182;DHT22;13927;51.534;11.866;2022-11-13T00:18:41;2.80;99.90
26182;DHT22;13927;51.534;11.866;2022-11-13T00:21:08;2.70;99.90
26182;DHT22;13927;51.534;11.866;2022-11-13T00:23:36;2.70;99.90
26182;DHT22;13927;51.534;11.866;2022-11-13T00:28:37;2.60;99.90
26182;DHT22;13927;51.534;11.866;2022-11-13T00:31:04;2.60;99.90
26182;DHT22;13927;51.534;11.866;2022-11-13T00:33:30;2.60;99.90
26182;DHT22;13927;51.534;11.866;2022-11-13T00:36:06;2.60;99.90
26182;DHT22;13927;51.534;11.866;2022-11-13T00:38:34;2.50;99.90
26182;DHT22;13927;51.534;11.866;2022-11-13T00:41:00;2.50;99.90
26182;DHT22;13927;51.534;11.866;2022-11-13T00:43:26;2.50;99.90
26182;DHT22;13927;51.534;11.866;2022-11-13T00:45:51;2.50;99.90
26182;DHT22;13927;51.534;11.866;2022-11-13T00:48:17;2.50;99.90
26182;DHT22;13927;51.534;11.866;2022-11-13T00:50:43;2.50;99.90
26182;DHT22;13927;51.534;11.866;2022-11-13T00:53:09;2.50;99.90
26182;DHT22;13927;51.534;11.866;2022-11-13T00:55:35;2.50;99.90
26182;DHT22;13927;51.534;11.866;2022-11-13T00:58:01;2.60;99.90
26182;DHT22;13927;51.534;11.866;2022-11-13T01:00:26;2.50;99.90
26182;DHT22;13927;51.534;11.866;2022-11-13T01:02:52;2.50;99.90
26182;DHT22;13927;51.534;11.866;2022-11-13T01:05:17;2.50;99.90
26182;DHT22;13927;51.534;11.866;2022-11-13T01:07:43;2.40;99.90
26182;DHT22;13927;51.534;11.866;2022-11-13T01:10:09;2.40;99.90
26182;DHT22;13927;51.534;11.866;2022-11-13T01:12:34;2.40;99.90
26182;DHT22;13927;51.534;11.866;2022-11-13T01:15:01;2.40;99.90
26182;DHT22;13927;51.534;11.866;2022-11-13T01:17:26;2.40;99.90
26182;DHT22;13927;51.534;11.866;2022-11-13T01:19:52;2.30;99.90
26182;DHT22;13927;51.534;11.866;2022-11-13T01:22:18;2.30;99.90
26182;DHT22;13927;51.534;11.866;2022-11-13T01:24:43;2.20;99.90
26182;DHT22;13927;51.534;11.866;2022-11-13T01:27:09;2.10;99.90
26182;DHT22;13927;51.534;11.866;2022-11-13T01:29:36;2.10;99.90
26182;DHT22;13927;51.534;11.866;2022-11-13T01:32:02;2.10;99.90
26182;DHT22;13927;51.534;11.866;2022-11-13T01:34:27;2.00;99.90
26182;DHT22;13927;51.534;11.866;2022-11-13T01:36:53;2.00;99.90
26182;DHT22;13927;51.534;11.866;2022-11-13T01:39:19;2.00;99.90
26182;DHT22;13927;51.534;11.866;2022-11-13T01:41:44;1.90;99.90
26182;DHT22;13927;51.534;11.866;2022-11-13T01:44:11;1.90;99.90
26182;DHT22;13927;51.534;11.866;2022-11-13T01:46:39;1.90;99.90
26182;DHT22;13927;51.534;11.866;2022-11-13T01:51:33;1.90;99.90
26182;DHT22;13927;51.534;11.866;2022-11-13T01:54:03;1.90;99.90
26182;DHT22;13927;51.534;11.866;2022-11-13T01:56:30;1.90;99.90
26182;DHT22;13927;51.534;11.866;2022-11-13T01:58:57;1.90;99.90
26182;DHT22;13927;51.534;11.866;2022-11-13T02:01:27;1.90;99.90
26182;DHT22;13927;51.534;11.866;2022-11-13T02:03:53;1.90;99.90
26182;DHT22;13927;51.534;11.866;2022-11-13T02:06:18;1.90;99.90
26182;DHT22;13927;51.534;11.866;2022-11-13T02:08:45;1.70;99.90
26182;DHT22;13927;51.534;11.866;2022-11-13T02:11:13;1.70;99.90
26182;DHT22;13927;51.534;11.866;2022-11-13T02:13:38;1.80;99.90
26182;DHT22;13927;51.534;11.866;2022-11-13T02:16:05;1.80;99.90
26182;DHT22;13927;51.534;11.866;2022-11-13T02:18:32;1.80;99.90
26182;DHT22;13927;51.534;11.866;2022-11-13T02:21:01;1.80;99.90
26182;DHT22;13927;51.534;11.866;2022-11-13T02:23:36;1.80;99.90
26182;DHT22;13927;51.534;11.866;2022-11-13T02:26:08;1.80;99.90
26182;DHT22;13927;51.534;11.866;2022-11-13T02:28:34;1.80;99.90
26182;DHT22;13927;51.534;11.866;2022-11-13T02:31:10;1.80;99.90
26182;DHT22;13927;51.534;11.866;2022-11-13T02:33:38;1.80;99.90
26182;DHT22;13927;51.534;11.866;2022-11-13T02:36:04;1.80;99.90
26182;DHT22;13927;51.534;11.866;2022-11-13T02:38:32;1.80;99.90
26182;DHT22;13927;51.534;11.866;2022-11-13T02:40:59;1.80;99.90
26182;DHT22;13927;51.534;11.866;2022-11-13T02:43:25;1.80;99.90
26182;DHT22;13927;51.534;11.866;2022-11-13T02:45:53;1.80;99.90
26182;DHT22;13927;51.534;11.866;2022-11-13T02:48:18;1.70;99.90
26182;DHT22;13927;51.534;11.866;2022-11-13T02:50:44;1.70;99.90
26182;DHT22;13927;51.534;11.866;2022-11-13T02:53:10;1.70;99.90
26182;DHT22;13927;51.534;11.866;2022-11-13T02:55:36;1.70;99.90
26182;DHT22;13927;51.534;11.866;2022-11-13T02:58:01;1.70;99.90
26182;DHT22;13927;51.534;11.866;2022-11-13T03:00:27;1.70;99.90
26182;DHT22;13927;51.534;11.866;2022-11-13T03:02:53;1.70;99.90
26182;DHT22;13927;51.534;11.866;2022-11-13T03:05:20;1.70;99.90
26182;DHT22;13927;51.534;11.866;2022-11-13T03:07:46;1.80;99.90
26182;DHT22;13927;51.534;11.866;2022-11-13T03:10:12;1.80;99.90
26182;DHT22;13927;51.534;11.866;2022-11-13T03:12:38;1.80;99.90
26182;DHT22;13927;51.534;11.866;2022-11-13T03:15:05;1.80;99.90
26182;DHT22;13927;51.534;11.866;2022-11-13T03:17:32;1.80;99.90
26182;DHT22;13927;51.534;11.866;2022-11-13T03:19:58;1.90;99.90
26182;DHT22;13927;51.534;11.866;2022-11-13T03:22:24;1.90;99.90
26182;DHT22;13927;51.534;11.866;2022-11-13T03:24:50;1.90;99.90
26182;DHT22;13927;51.534;11.866;2022-11-13T03:27:15;1.90;99.90
26182;DHT22;13927;51.534;11.866;2022-11-13T03:29:41;1.90;99.90
26182;DHT22;13927;51.534;11.866;2022-11-13T03:32:07;1.90;99.90
26182;DHT22;13927;51.534;11.866;2022-11-13T03:34:32;1.90;99.90
26182;DHT22;13927;51.534;11.866;2022-11-13T03:36:58;1.90;99.90
26182;DHT22;13927;51.534;11.866;2022-11-13T03:39:24;1.90;99.90
26182;DHT22;13927;51.534;11.866;2022-11-13T03:41:49;1.90;99.90
26182;DHT22;13927;51.534;11.866;2022-11-13T03:44:15;1.90;99.90
26182;DHT22;13927;51.534;11.866;2022-11-13T03:46:41;2.00;99.90
26182;DHT22;13927;51.534;11.866;2022-11-13T03:49:06;2.00;99.90
26182;DHT22;13927;51.534;11.866;2022-11-13T03:51:32;2.00;99.90
26182;DHT22;13927;51.534;11.866;2022-11-13T03:53:58;2.00;99.90
26182;DHT22;13927;51.534;11.866;2022-11-13T03:56:24;2.00;99.90
26182;DHT22;13927;51.534;11.866;2022-11-13T03:58:50;2.00;99.90
26182;DHT22;13927;51.534;11.866;2022-11-13T04:01:16;2.00;99.90
26182;DHT22;13927;51.534;11.866;2022-11-13T04:03:41;2.10;99.90
26182;DHT22;13927;51.534;11.866;2022-11-13T04:06:07;2.10;99.90
26182;DHT22;13927;51.534;11.866;2022-11-13T04:08:33;2.10;99.90
26182;DHT22;13927;51.534;11.866;2022-11-13T04:11:06;2.10;99.90
26182;DHT22;13927;51.534;11.866;2022-11-13T04:13:36;2.10;99.90
26182;DHT22;13927;51.534;11.866;2022-11-13T04:16:02;2.10;99.90
26182;DHT22;13927;51.534;11.866;2022-11-13T04:18:28;2.10;99.90
26182;DHT22;13927;51.534;11.866;2022-11-13T04:21:03;2.10;99.90
26182;DHT22;13927;51.534;11.866;2022-11-13T04:23:29;2.10;99.90
26182;DHT22;13927;51.534;11.866;2022-11-13T04:25:55;2.10;99.90
26182;DHT22;13927;51.534;11.866;2022-11-13T04:28:21;2.10;99.90
26182;DHT22;13927;51.534;11.866;2022-11-13T04:30:47;2.10;99.90
26182;DHT22;13927;51.534;11.866;2022-11-13T04:33:12;2.10;99.90
26182;DHT22;13927;51.534;11.866;2022-11-13T04:35:38;2.10;99.90
26182;DHT22;13927;51.534;11.866;2022-11-13T04:38:06;2.20;99.90
26182;DHT22;13927;51.534;11.866;2022-11-13T04:40:32;2.20;99.90
26182;DHT22;13927;51.534;11.866;2022-11-13T04:42:57;2.30;99.90
26182;DHT22;13927;51.534;11.866;2022-11-13T04:45:23;2.30;99.90
26182;DHT22;13927;51.534;11.866;2022-11-13T04:47:51;2.30;99.90
26182;DHT22;13927;51.534;11.866;2022-11-13T04:50:18;2.30;99.90
26182;DHT22;13927;51.534;11.866;2022-11-13T04:52:43;2.40;99.90
26182;DHT22;13927;51.534;11.866;2022-11-13T04:55:09;2.40;99.90
26182;DHT22;13927;51.534;11.866;2022-11-13T04:57:38;2.40;99.90
26182;DHT22;13927;51.534;11.866;2022-11-13T05:00:05;2.50;99.90
26182;DHT22;13927;51.534;11.866;2022-11-13T05:02:31;2.50;99.90
26182;DHT22;13927;51.534;11.866;2022-11-13T05:04:57;2.40;99.90
26182;DHT22;13927;51.534;11.866;2022-11-13T05:07:23;2.50;99.90
26182;DHT22;13927;51.534;11.866;2022-11-13T05:09:50;2.50;99.90
26182;DHT22;13927;51.534;11.866;2022-11-13T05:12:16;2.50;99.90
26182;DHT22;13927;51.534;11.866;2022-11-13T05:14:42;2.60;99.90
26182;DHT22;13927;51.534;11.866;2022-11-13T05:17:09;2.60;99.90
26182;DHT22;13927;51.534;11.866;2022-11-13T05:19:35;2.70;99.90
26182;DHT22;13927;51.534;11.866;2022-11-13T05:22:01;2.70;99.90
26182;DHT22;13927;51.534;11.866;2022-11-13T05:24:27;2.70;99.90
26182;DHT22;13927;51.534;11.866;2022-11-13T05:26:53;2.80;99.90
26182;DHT22;13927;51.534;11.866;2022-11-13T05:29:18;2.80;99.90
26182;DHT22;13927;51.534;11.866;2022-11-13T05:31:44;2.80;99.90
26182;DHT22;13927;51.534;11.866;2022-11-13T05:34:10;2.80;99.90
26182;DHT22;13927;51.534;11.866;2022-11-13T05:36:36;2.80;99.90
26182;DHT22;13927;51.534;11.866;2022-11-13T05:39:02;2.90;99.90
26182;DHT22;13927;51.534;11.866;2022-11-13T05:41:27;2.90;99.90
26182;DHT22;13927;51.534;11.866;2022-11-13T05:43:53;2.90;99.90
26182;DHT22;13927;51.534;11.866;2022-11-13T05:46:23;2.90;99.90
26182;DHT22;13927;51.534;11.866;2022-11-13T05:48:52;2.90;99.90
26182;DHT22;13927;51.534;11.866;2022-11-13T05:51:22;2.80;99.90
26182;DHT22;13927;51.534;11.866;2022-11-13T05:53:50;2.80;99.90
26182;DHT22;13927;51.534;11.866;2022-11-13T05:56:17;2.80;99.90
26182;DHT22;13927;51.534;11.866;2022-11-13T05:58:45;2.80;99.90
26182;DHT22;13927;51.534;11.866;2022-11-13T06:01:16;2.70;99.90
26182;DHT22;13927;51.534;11.866;2022-11-13T06:03:43;2.80;99.90
26182;DHT22;13927;51.534;11.866;2022-11-13T06:06:10;2.80;99.90
26182;DHT22;13927;51.534;11.866;2022-11-13T06:08:37;2.70;99.90
26182;DHT22;13927;51.534;11.866;2022-11-13T06:11:04;2.70;99.90
26182;DHT22;13927;51.534;11.866;2022-11-13T06:13:34;2.70;99.90
26182;DHT22;13927;51.534;11.866;2022-11-13T06:16:07;2.70;99.90
26182;DHT22;13927;51.534;11.866;2022-11-13T06:18:34;2.70;99.90
26182;DHT22;13927;51.534;11.866;2022-11-13T06:21:01;2.60;99.90
26182;DHT22;13927;51.534;11.866;2022-11-13T06:23:27;2.60;99.90
26182;DHT22;13927;51.534;11.866;2022-11-13T06:25:58;2.60;99.90
26182;DHT22;13927;51.534;11.866;2022-11-13T06:28:25;2.60;99.90
26182;DHT22;13927;51.534;11.866;2022-11-13T06:30:50;2.60;99.90
26182;DHT22;13927;51.534;11.866;2022-11-13T06:33:16;2.70;99.90
26182;DHT22;13927;51.534;11.866;2022-11-13T06:35:41;2.70;99.90
26182;DHT22;13927;51.534;11.866;2022-11-13T06:38:07;2.80;99.90
26182;DHT22;13927;51.534;11.866;2022-11-13T06:40:33;2.80;99.90
26182;DHT22;13927;51.534;11.866;2022-11-13T06:43:02;2.80;99.90
26182;DHT22;13927;51.534;11.866;2022-11-13T06:45:28;2.80;99.90
26182;DHT22;13927;51.534;11.866;2022-11-13T06:47:53;2.80;99.90
26182;DHT22;13927;51.534;11.866;2022-11-13T06:50:19;2.80;99.90
26182;DHT22;13927;51.534;11.866;2022-11-13T06:52:45;2.80;99.90
26182;DHT22;13927;51.534;11.866;2022-11-13T06:55:11;2.90;99.90
26182;DHT22;13927;51.534;11.866;2022-11-13T06:57:37;2.90;99.90
26182;DHT22;13927;51.534;11.866;2022-11-13T07:00:04;2.90;99.90
26182;DHT22;13927;51.534;11.866;2022-11-13T07:02:30;3.00;99.90
26182;DHT22;13927;51.534;11.866;2022-11-13T07:04:57;3.00;99.90
26182;DHT22;13927;51.534;11.866;2022-11-13T07:07:22;3.00;99.90
26182;DHT22;13927;51.534;11.866;2022-11-13T07:09:49;3.10;99.90
26182;DHT22;13927;51.534;11.866;2022-11-13T07:12:15;3.10;99.90
26182;DHT22;13927;51.534;11.866;2022-11-13T07:14:40;3.20;99.90
26182;DHT22;13927;51.534;11.866;2022-11-13T07:17:06;3.20;99.90
26182;DHT22;13927;51.534;11.866;2022-11-13T07:19:32;3.20;99.90
26182;DHT22;13927;51.534;11.866;2022-11-13T07:21:57;3.30;99.90
26182;DHT22;13927;51.534;11.866;2022-11-13T07:24:23;3.30;99.90
26182;DHT22;13927;51.534;11.866;2022-11-13T07:26:49;3.40;99.90
26182;DHT22;13927;51.534;11.866;2022-11-13T07:29:15;3.30;99.90
26182;DHT22;13927;51.534;11.866;2022-11-13T07:31:40;3.40;99.90
26182;DHT22;13927;51.534;11.866;2022-11-13T07:34:06;3.50;99.90
26182;DHT22;13927;51.534;11.866;2022-11-13T07:36:32;3.50;99.90
26182;DHT22;13927;51.534;11.866;2022-11-13T07:38:57;3.50;99.90
26182;DHT22;13927;51.534;11.866;2022-11-13T07:41:23;3.50;99.90
26182;DHT22;13927;51.534;11.866;2022-11-13T07:43:49;3.60;99.90
26182;DHT22;13927;51.534;11.866;2022-11-13T07:46:14;3.60;99.90
26182;DHT22;13927;51.534;11.866;2022-11-13T07:48:40;3.70;99.90
26182;DHT22;13927;51.534;11.866;2022-11-13T07:51:06;3.70;99.90
26182;DHT22;13927;51.534;11.866;2022-11-13T07:53:31;3.80;99.90
26182;DHT22;13927;51.534;11.866;2022-11-13T07:56:01;3.80;99.90
26182;DHT22;13927;51.534;11.866;2022-11-13T07:58:27;3.80;99.90
26182;DHT22;13927;51.534;11.866;2022-11-13T08:00:53;3.90;99.90
26182;DHT22;13927;51.534;11.866;2022-11-13T08:03:19;3.90;99.90
26182;DHT22;13927;51.534;11.866;2022-11-13T08:05:45;4.00;99.90
26182;DHT22;13927;51.534;11.866;2022-11-13T08:08:11;4.10;99.90
26182;DHT22;13927;51.534;11.866;2022-11-13T08:10:38;4.20;99.90
26182;DHT22;13927;51.534;11.866;2022-11-13T08:13:05;4.20;99.90
26182;DHT22;13927;51.534;11.866;2022-11-13T08:15:32;4.20;99.90
26182;DHT22;13927;51.534;11.866;2022-11-13T08:17:59;4.20;99.90
26182;DHT22;13927;51.534;11.866;2022-11-13T08:20:27;4.20;99.90
26182;DHT22;13927;51.534;11.866;2022-11-13T08:22:57;4.10;99.90
26182;DHT22;13927;51.534;11.866;2022-11-13T08:25:27;4.20;99.90
26182;DHT22;13927;51.534;11.866;2022-11-13T08:27:53;4.20;99.90
26182;DHT22;13927;51.534;11.866;2022-11-13T08:30:21;4.40;99.90
26182;DHT22;13927;51.534;11.866;2022-11-13T08:32:48;4.40;99.90
26182;DHT22;13927;51.534;11.866;2022-11-13T08:35:13;4.60;99.90
26182;DHT22;13927;51.534;11.866;2022-11-13T08:37:39;4.70;99.90
26182;DHT22;13927;51.534;11.866;2022-11-13T08:40:06;4.80;99.90
26182;DHT22;13927;51.534;11.866;2022-11-13T08:42:32;5.00;99.90
26182;DHT22;13927;51.534;11.866;2022-11-13T08:44:58;5.10;99.90
26182;DHT22;13927;51.534;11.866;2022-11-13T08:47:24;5.20;99.90
26182;DHT22;13927;51.534;11.866;2022-11-13T08:49:53;5.30;99.90
26182;DHT22;13927;51.534;11.866;2022-11-13T08:52:19;5.40;99.90
26182;DHT22;13927;51.534;11.866;2022-11-13T08:54:45;5.40;99.90
26182;DHT22;13927;51.534;11.866;2022-11-13T08:57:11;5.50;99.90
26182;DHT22;13927;51.534;11.866;2022-11-13T08:59:37;5.50;99.90
26182;DHT22;13927;51.534;11.866;2022-11-13T09:02:03;5.60;99.90
26182;DHT22;13927;51.534;11.866;2022-11-13T09:04:29;5.60;99.90
26182;DHT22;13927;51.534;11.866;2022-11-13T09:06:54;5.60;99.90
26182;DHT22;13927;51.534;11.866;2022-11-13T09:09:20;5.70;99.90
26182;DHT22;13927;51.534;11.866;2022-11-13T09:11:47;5.80;99.90
26182;DHT22;13927;51.534;11.866;2022-11-13T09:14:12;5.80;99.90
26182;DHT22;13927;51.534;11.866;2022-11-13T09:16:38;5.90;99.90
26182;DHT22;13927;51.534;11.866;2022-11-13T09:19:04;5.90;99.90
26182;DHT22;13927;51.534;11.866;2022-11-13T09:21:30;6.00;99.90
26182;DHT22;13927;51.534;11.866;2022-11-13T09:23:55;6.00;99.90
26182;DHT22;13927;51.534;11.866;2022-11-13T09:26:21;5.90;99.90
26182;DHT22;13927;51.534;11.866;2022-11-13T09:28:47;5.90;99.90
26182;DHT22;13927;51.534;11.866;2022-11-13T09:31:12;5.90;99.90
26182;DHT22;13927;51.534;11.866;2022-11-13T09:33:38;5.90;99.90
26182;DHT22;13927;51.534;11.866;2022-11-13T09:36:10;5.90;99.90
26182;DHT22;13927;51.534;11.866;2022-11-13T09:38:38;5.90;99.90
26182;DHT22;13927;51.534;11.866;2022-11-13T09:41:12;5.90;99.90
26182;DHT22;13927;51.534;11.866;2022-11-13T09:43:51;5.90;99.90
26182;DHT22;13927;51.534;11.866;2022-11-13T09:49:12;6.00;99.90
26182;DHT22;13927;51.534;11.866;2022-11-13T09:51:40;6.10;99.90
26182;DHT22;13927;51.534;11.866;2022-11-13T09:54:14;6.10;99.90
26182;DHT22;13927;51.534;11.866;2022-11-13T09:57:00;6.10;99.90
26182;DHT22;13927;51.534;11.866;2022-11-13T09:59:47;6.10;99.90
26182;DHT22;13927;51.534;11.866;2022-11-13T10:08:18;6.20;99.90
26182;DHT22;13927;51.534;11.866;2022-11-13T10:13:46;6.20;99.90
26182;DHT22;13927;51.534;11.866;2022-11-13T10:16:16;6.20;99.90
26182;DHT22;13927;51.534;11.866;2022-11-13T10:19:16;6.30;99.90
26182;DHT22;13927;51.534;11.866;2022-11-13T10:21:48;6.40;99.90
26182;DHT22;13927;51.534;11.866;2022-11-13T10:24:23;6.50;99.90
26182;DHT22;13927;51.534;11.866;2022-11-13T10:26:52;6.60;99.90
26182;DHT22;13927;51.534;11.866;2022-11-13T10:29:20;6.70;99.90
26182;DHT22;13927;51.534;11.866;2022-11-13T10:31:47;6.70;99.90
26182;DHT22;13927;51.534;11.866;2022-11-13T10:34:16;6.80;99.90
26182;DHT22;13927;51.534;11.866;2022-11-13T10:39:45;6.90;99.90
26182;DHT22;13927;51.534;11.866;2022-11-13T10:42:27;6.90;99.90
26182;DHT22;13927;51.534;11.866;2022-11-13T10:44:56;7.00;99.90
26182;DHT22;13927;51.534;11.866;2022-11-13T10:47:24;7.00;99.90
26182;DHT22;13927;51.534;11.866;2022-11-13T10:49:51;7.00;99.90
26182;DHT22;13927;51.534;11.866;2022-11-13T10:52:18;7.20;99.90
26182;DHT22;13927;51.534;11.866;2022-11-13T10:54:45;7.10;99.90
26182;DHT22;13927;51.534;11.866;2022-11-13T10:57:23;7.20;99.90
26182;DHT22;13927;51.534;11.866;2022-11-13T10:59:52;7.20;99.90
26182;DHT22;13927;51.534;11.866;2022-11-13T11:02:22;7.20;99.90
26182;DHT22;13927;51.534;11.866;2022-11-13T11:04:59;7.30;99.90
26182;DHT22;13927;51.534;11.866;2022-11-13T11:07:26;7.30;99.90
26182;DHT22;13927;51.534;11.866;2022-11-13T11:09:51;7.40;99.90
26182;DHT22;13927;51.534;11.866;2022-11-13T11:12:23;7.40;99.90
26182;DHT22;13927;51.534;11.866;2022-11-13T11:25:54;7.50;99.90
26182;DHT22;13927;51.534;11.866;2022-11-13T11:28:28;7.50;99.90
26182;DHT22;13927;51.534;11.866;2022-11-13T11:31:20;7.50;99.90
26182;DHT22;13927;51.534;11.866;2022-11-13T11:33:54;7.40;99.90
26182;DHT22;13927;51.534;11.866;2022-11-13T11:36:32;7.40;99.90
26182;DHT22;13927;51.534;11.866;2022-11-13T11:39:14;7.40;99.90
26182;DHT22;13927;51.534;11.866;2022-11-13T11:41:54;7.30;99.90
26182;DHT22;13927;51.534;11.866;2022-11-13T11:44:46;7.30;99.90
26182;DHT22;13927;51.534;11.866;2022-11-13T11:47:15;7.30;99.90
26182;DHT22;13927;51.534;11.866;2022-11-13T11:49:42;7.30;99.90
26182;DHT22;13927;51.534;11.866;2022-11-13T11:52:16;7.40;99.90
26182;DHT22;13927;51.534;11.866;2022-11-13T11:57:47;7.50;99.90
26182;DHT22;13927;51.534;11.866;2022-11-13T12:00:19;7.50;99.90
26182;DHT22;13927;51.534;11.866;2022-11-13T12:08:17;7.50;99.90
26182;DHT22;13927;51.534;11.866;2022-11-13T12:17:10;7.60;99.90
26182;DHT22;13927;51.534;11.866;2022-11-13T12:25:19;7.80;99.90
26182;DHT22;13927;51.534;11.866;2022-11-13T12:27:58;7.80;99.90
26182;DHT22;13927;51.534;11.866;2022-11-13T12:33:22;7.70;99.90
26182;DHT22;13927;51.534;11.866;2022-11-13T12:35:49;7.70;99.90
26182;DHT22;13927;51.534;11.866;2022-11-13T12:41:08;7.50;99.90
26182;DHT22;13927;51.534;11.866;2022-11-13T12:44:25;7.50;99.90
26182;DHT22;13927;51.534;11.866;2022-11-13T12:46:47;7.40;99.90
26182;DHT22;13927;51.534;11.866;2022-11-13T12:49:14;7.30;99.90
26182;DHT22;13927;51.534;11.866;2022-11-13T12:51:56;7.30;99.90
26182;DHT22;13927;51.534;11.866;2022-11-13T12:54:29;7.10;99.90
26182;DHT22;13927;51.534;11.866;2022-11-13T12:59:38;7.00;99.90
26182;DHT22;13927;51.534;11.866;2022-11-13T13:15:57;7.00;99.90
26182;DHT22;13927;51.534;11.866;2022-11-13T13:18:25;7.10;99.90
26182;DHT22;13927;51.534;11.866;2022-11-13T13:28:38;7.20;99.90
26182;DHT22;13927;51.534;11.866;2022-11-13T13:49:44;7.50;99.90
26182;DHT22;13927;51.534;11.866;2022-11-13T13:52:11;7.60;99.90
26182;DHT22;13927;51.534;11.866;2022-11-13T13:54:39;7.60;99.90
26182;DHT22;13927;51.534;11.866;2022-11-13T13:57:08;7.60;99.90
26182;DHT22;13927;51.534;11.866;2022-11-13T13:59:37;7.60;99.90
26182;DHT22;13927;51.534;11.866;2022-11-13T14:02:11;7.70;99.90
26182;DHT22;13927;51.534;11.866;2022-11-13T14:04:46;7.70;99.90
26182;DHT22;13927;51.534;11.866;2022-11-13T14:09:48;7.80;99.90
26182;DHT22;13927;51.534;11.866;2022-11-13T14:12:18;7.70;99.90
26182;DHT22;13927;51.534;11.866;2022-11-13T14:14:45;7.70;99.90
26182;DHT22;13927;51.534;11.866;2022-11-13T14:17:11;7.60;99.90
26182;DHT22;13927;51.534;11.866;2022-11-13T14:19:38;7.60;99.90
26182;DHT22;13927;51.534;11.866;2022-11-13T14:22:04;7.50;99.90
26182;DHT22;13927;51.534;11.866;2022-11-13T14:26:59;7.60;99.90
26182;DHT22;13927;51.534;11.866;2022-11-13T14:29:34;7.60;99.90
26182;DHT22;13927;51.534;11.866;2022-11-13T14:32:08;7.60;99.90
26182;DHT22;13927;51.534;11.866;2022-11-13T14:34:35;7.60;99.90
26182;DHT22;13927;51.534;11.866;2022-11-13T14:40:02;7.70;99.90
26182;DHT22;13927;51.534;11.866;2022-11-13T14:42:46;7.70;99.90
26182;DHT22;13927;51.534;11.866;2022-11-13T14:47:43;7.70;99.90
26182;DHT22;13927;51.534;11.866;2022-11-13T14:50:20;7.70;99.90
26182;DHT22;13927;51.534;11.866;2022-11-13T14:52:58;7.70;99.90
26182;DHT22;13927;51.534;11.866;2022-11-13T14:55:32;7.70;99.90
26182;DHT22;13927;51.534;11.866;2022-11-13T14:58:02;7.70;99.90
26182;DHT22;13927;51.534;11.866;2022-11-13T15:00:30;7.70;99.90
26182;DHT22;13927;51.534;11.866;2022-11-13T15:02:58;7.70;99.90
26182;DHT22;13927;51.534;11.866;2022-11-13T15:05:24;7.70;99.90
26182;DHT22;13927;51.534;11.866;2022-11-13T15:07:51;7.60;99.90
26182;DHT22;13927;51.534;11.866;2022-11-13T15:10:19;7.60;99.90
26182;DHT22;13927;51.534;11.866;2022-11-13T15:12:46;7.50;99.90
26182;DHT22;13927;51.534;11.866;2022-11-13T15:15:17;7.40;99.90
26182;DHT22;13927;51.534;11.866;2022-11-13T15:17:46;7.30;99.90
26182;DHT22;13927;51.534;11.866;2022-11-13T15:20:23;7.20;99.90
26182;DHT22;13927;51.534;11.866;2022-11-13T15:22:50;7.20;99.90
26182;DHT22;13927;51.534;11.866;2022-11-13T15:25:17;7.20;99.90
26182;DHT22;13927;51.534;11.866;2022-11-13T15:27:44;7.10;99.90
26182;DHT22;13927;51.534;11.866;2022-11-13T15:30:10;7.00;99.90
26182;DHT22;13927;51.534;11.866;2022-11-13T15:32:37;6.90;99.90
26182;DHT22;13927;51.534;11.866;2022-11-13T15:35:05;6.80;99.90
26182;DHT22;13927;51.534;11.866;2022-11-13T15:37:32;6.80;99.90
26182;DHT22;13927;51.534;11.866;2022-11-13T15:39:57;6.70;99.90
26182;DHT22;13927;51.534;11.866;2022-11-13T15:42:26;6.60;99.90
26182;DHT22;13927;51.534;11.866;2022-11-13T15:44:54;6.50;99.90
26182;DHT22;13927;51.534;11.866;2022-11-13T15:47:27;6.40;99.90
26182;DHT22;13927;51.534;11.866;2022-11-13T15:49:55;6.40;99.90
26182;DHT22;13927;51.534;11.866;2022-11-13T15:52:21;6.30;99.90
26182;DHT22;13927;51.534;11.866;2022-11-13T15:54:48;6.20;99.90
26182;DHT22;13927;51.534;11.866;2022-11-13T15:57:22;6.20;99.90
26182;DHT22;13927;51.534;11.866;2022-11-13T15:59:48;6.00;99.90
26182;DHT22;13927;51.534;11.866;2022-11-13T16:02:14;5.90;99.90
26182;DHT22;13927;51.534;11.866;2022-11-13T16:04:41;5.80;99.90
26182;DHT22;13927;51.534;11.866;2022-11-13T16:07:14;5.70;99.90
26182;DHT22;13927;51.534;11.866;2022-11-13T16:09:42;5.70;99.90
26182;DHT22;13927;51.534;11.866;2022-11-13T16:12:09;5.60;99.90
26182;DHT22;13927;51.534;11.866;2022-11-13T16:14:35;5.50;99.90
26182;DHT22;13927;51.534;11.866;2022-11-13T16:17:00;5.40;99.90
26182;DHT22;13927;51.534;11.866;2022-11-13T16:19:26;5.40;99.90
26182;DHT22;13927;51.534;11.866;2022-11-13T16:21:52;5.30;99.90
26182;DHT22;13927;51.534;11.866;2022-11-13T16:24:18;5.20;99.90
26182;DHT22;13927;51.534;11.866;2022-11-13T16:26:53;5.10;99.90
26182;DHT22;13927;51.534;11.866;2022-11-13T16:29:22;5.10;99.90
26182;DHT22;13927;51.534;11.866;2022-11-13T16:31:48;5.00;99.90
26182;DHT22;13927;51.534;11.866;2022-11-13T16:34:15;5.00;99.90
26182;DHT22;13927;51.534;11.866;2022-11-13T16:36:41;4.90;99.90
26182;DHT22;13927;51.534;11.866;2022-11-13T16:39:08;4.90;99.90
26182;DHT22;13927;51.534;11.866;2022-11-13T16:41:39;4.90;99.90
26182;DHT22;13927;51.534;11.866;2022-11-13T16:44:04;4.80;99.90
26182;DHT22;13927;51.534;11.866;2022-11-13T16:46:31;4.70;99.90
26182;DHT22;13927;51.534;11.866;2022-11-13T16:48:57;4.70;99.90
26182;DHT22;13927;51.534;11.866;2022-11-13T16:51:23;4.60;99.90
26182;DHT22;13927;51.534;11.866;2022-11-13T16:53:49;4.60;99.90
26182;DHT22;13927;51.534;11.866;2022-11-13T16:56:16;4.50;99.90
26182;DHT22;13927;51.534;11.866;2022-11-13T16:58:45;4.50;99.90
26182;DHT22;13927;51.534;11.866;2022-11-13T17:01:14;4.50;99.90
26182;DHT22;13927;51.534;11.866;2022-11-13T17:03:41;4.40;99.90
26182;DHT22;13927;51.534;11.866;2022-11-13T17:06:40;4.40;99.90
26182;DHT22;13927;51.534;11.866;2022-11-13T17:09:02;4.40;99.90
26182;DHT22;13927;51.534;11.866;2022-11-13T17:11:29;4.30;99.90
26182;DHT22;13927;51.534;11.866;2022-11-13T17:13:57;4.30;99.90
26182;DHT22;13927;51.534;11.866;2022-11-13T17:16:24;4.20;99.90
26182;DHT22;13927;51.534;11.866;2022-11-13T17:18:51;4.20;99.90
26182;DHT22;13927;51.534;11.866;2022-11-13T17:21:21;4.20;99.90
26182;DHT22;13927;51.534;11.866;2022-11-13T17:23:57;4.20;99.90
26182;DHT22;13927;51.534;11.866;2022-11-13T17:26:25;4.10;99.90